createdAt,value
2022-11-23T00:01:53.319Z,91.20
2022-11-23T00:04:01.601Z,90.80
2022-11-23T00:06:08.731Z,90.80
2022-11-23T00:08:15.503Z,91.00
2022-11-23T00:10:22.686Z,90.60
2022-11-23T00:12:29.455Z,90.20
2022-11-23T00:14:36.586Z,89.90
2022-11-23T00:16:43.307Z,89.60
2022-11-23T00:18:52.844Z,89.30
2022-11-23T00:21:00.178Z,89.10
2022-11-23T00:23:06.848Z,88.80
2022-11-23T00:25:14.056Z,88.80
2022-11-23T00:27:20.957Z,88.90
2022-11-23T00:29:28.495Z,89.00
2022-11-23T00:31:35.325Z,88.50
2022-11-23T00:33:43.117Z,88.40
2022-11-23T00:35:51.628Z,88.00
2022-11-23T00:37:58.760Z,88.10
2022-11-23T00:40:06.351Z,88.20
2022-11-23T00:42:13.330Z,88.50
2022-11-23T00:44:20.097Z,88.60
2022-11-23T00:46:30.710Z,88.30
2022-11-23T00:48:37.788Z,87.70
2022-11-23T00:50:44.722Z,87.60
2022-11-23T00:52:53.126Z,87.60
2022-11-23T00:55:00.460Z,87.40
2022-11-23T00:57:07.118Z,87.10
2022-11-23T00:59:14.263Z,87.00
2022-11-23T01:01:22.113Z,86.30
2022-11-23T01:03:29.238Z,85.70
2022-11-23T01:05:40.669Z,85.50
2022-11-23T01:07:47.707Z,85.50
2022-11-23T01:09:56.354Z,85.60
2022-11-23T01:12:03.447Z,85.60
2022-11-23T01:14:10.624Z,84.90
2022-11-23T01:16:24.105Z,85.00
2022-11-23T01:18:31.645Z,84.90
2022-11-23T01:20:39.392Z,84.70
2022-11-23T01:22:48.109Z,84.50
2022-11-23T01:24:57.490Z,84.30
2022-11-23T01:27:04.057Z,84.30
2022-11-23T01:29:11.956Z,84.10
2022-11-23T01:31:20.930Z,84.10
2022-11-23T01:33:33.079Z,83.80
2022-11-23T01:35:39.392Z,83.00
2022-11-23T01:37:46.469Z,81.80
2022-11-23T01:39:56.313Z,82.40
2022-11-23T01:42:03.292Z,81.90
2022-11-23T01:44:26.298Z,81.30
2022-11-23T01:46:34.753Z,81.70
2022-11-23T01:48:43.423Z,81.80
2022-11-23T01:50:52.855Z,80.80
2022-11-23T01:53:00.803Z,80.90
2022-11-23T01:55:10.040Z,81.10
2022-11-23T01:57:24.127Z,80.90
2022-11-23T01:59:33.692Z,80.40
2022-11-23T02:01:41.103Z,79.90
2022-11-23T02:03:50.126Z,79.90
2022-11-23T02:06:02.891Z,79.50
2022-11-23T02:08:10.328Z,79.60
2022-11-23T02:10:19.863Z,79.70
2022-11-23T02:12:26.740Z,80.00
2022-11-23T02:14:34.175Z,79.60
2022-11-23T02:16:41.871Z,79.40
2022-11-23T02:18:51.103Z,79.60
2022-11-23T02:21:02.070Z,79.30
2022-11-23T02:23:22.616Z,79.50
2022-11-23T02:25:39.988Z,79.30
2022-11-23T02:27:50.186Z,79.00
2022-11-23T02:30:01.006Z,78.50
2022-11-23T02:32:08.699Z,78.00
2022-11-23T02:34:15.726Z,77.40
2022-11-23T02:36:40.174Z,76.80
2022-11-23T02:38:46.985Z,76.20
2022-11-23T02:40:54.524Z,76.40
2022-11-23T02:43:04.010Z,76.00
2022-11-23T02:45:18.980Z,74.40
2022-11-23T02:47:25.795Z,75.10
2022-11-23T02:49:33.028Z,74.70
2022-11-23T02:51:40.109Z,73.30
2022-11-23T02:53:47.241Z,73.20
2022-11-23T02:55:54.114Z,73.80
2022-11-23T02:58:02.889Z,73.60
2022-11-23T03:00:10.834Z,73.30
2022-11-23T03:02:18.118Z,72.90
2022-11-23T03:04:27.930Z,73.20
2022-11-23T03:06:35.705Z,73.00
2022-11-23T03:08:42.632Z,71.80
2022-11-23T03:10:49.916Z,71.60
2022-11-23T03:13:00.476Z,72.00
2022-11-23T03:15:13.392Z,69.30
2022-11-23T03:17:20.779Z,70.20
2022-11-23T03:19:27.806Z,70.20
2022-11-23T03:21:34.630Z,70.50
2022-11-23T03:23:45.550Z,70.00
2022-11-23T03:25:59.748Z,69.40
2022-11-23T03:28:13.275Z,69.80
2022-11-23T03:30:22.306Z,69.70
2022-11-23T03:32:29.688Z,70.00
2022-11-23T03:34:37.074Z,70.30
2022-11-23T03:36:44.565Z,70.50
2022-11-23T03:38:51.540Z,70.60
2022-11-23T03:41:17.870Z,71.00
2022-11-23T03:43:30.070Z,70.90
2022-11-23T03:45:39.044Z,70.60
2022-11-23T03:47:46.943Z,70.40
2022-11-23T03:49:54.071Z,69.30
2022-11-23T03:52:00.743Z,69.00
2022-11-23T03:54:08.334Z,69.20
2022-11-23T03:56:20.028Z,69.50
2022-11-23T03:58:27.255Z,69.90
2022-11-23T04:00:36.158Z,69.20
2022-11-23T04:02:45.561Z,69.40
2022-11-23T04:05:13.168Z,69.40
2022-11-23T04:07:53.630Z,69.30
2022-11-23T04:10:03.579Z,69.50
2022-11-23T04:12:28.985Z,69.40
2022-11-23T04:14:36.063Z,69.30
2022-11-23T04:16:42.685Z,69.20
2022-11-23T04:18:52.219Z,69.30
2022-11-23T04:20:59.093Z,69.80
2022-11-23T04:23:10.384Z,70.00
2022-11-23T04:25:20.117Z,70.20
2022-11-23T04:27:29.657Z,70.50
2022-11-23T04:29:37.906Z,70.20
2022-11-23T04:31:44.986Z,69.50
2022-11-23T04:33:57.597Z,69.40
2022-11-23T04:36:05.390Z,69.00
2022-11-23T04:38:12.112Z,68.60
2022-11-23T04:40:19.192Z,69.60
2022-11-23T04:42:45.931Z,68.60
2022-11-23T04:44:53.830Z,68.80
2022-11-23T04:47:00.755Z,68.50
2022-11-23T04:49:09.473Z,68.70
2022-11-23T04:51:17.426Z,68.90
2022-11-23T04:53:25.882Z,69.10
2022-11-23T04:55:32.809Z,69.10
2022-11-23T04:57:41.837Z,68.70
2022-11-23T04:59:48.861Z,68.70
2022-11-23T05:01:56.914Z,68.90
2022-11-23T05:04:23.431Z,69.20
2022-11-23T05:06:31.041Z,69.20
2022-11-23T05:08:40.372Z,69.00
2022-11-23T05:11:25.493Z,68.90
2022-11-23T05:13:34.568Z,69.00
2022-11-23T05:15:42.778Z,68.80
2022-11-23T05:17:57.727Z,68.50
2022-11-23T05:20:08.555Z,68.30
2022-11-23T05:22:19.578Z,68.10
2022-11-23T05:24:26.861Z,68.20
2022-11-23T05:26:44.895Z,68.10
2022-11-23T05:28:51.772Z,67.50
2022-11-23T05:30:59.158Z,67.20
2022-11-23T05:33:06.555Z,66.20
2022-11-23T05:35:16.695Z,66.50
2022-11-23T05:37:23.417Z,66.30
2022-11-23T05:39:39.815Z,66.50
2022-11-23T05:41:46.594Z,66.90
2022-11-23T05:44:13.275Z,67.40
2022-11-23T05:46:20.199Z,68.00
2022-11-23T05:48:27.432Z,68.00
2022-11-23T05:50:39.735Z,67.90
2022-11-23T05:53:18.762Z,67.80
2022-11-23T05:55:31.066Z,68.20
2022-11-23T05:57:37.939Z,68.20
2022-11-23T05:59:45.990Z,68.00
2022-11-23T06:01:59.522Z,68.00
2022-11-23T06:04:10.709Z,68.30
2022-11-23T06:06:23.253Z,68.30
2022-11-23T06:08:30.232Z,68.90
2022-11-23T06:10:38.794Z,69.00
2022-11-23T06:12:46.696Z,69.10
2022-11-23T06:14:57.049Z,68.70
2022-11-23T06:17:05.458Z,68.50
2022-11-23T06:19:16.598Z,68.80
2022-11-23T06:21:25.813Z,69.20
2022-11-23T06:23:32.691Z,69.00
2022-11-23T06:25:41.305Z,68.50
2022-11-23T06:28:04.766Z,68.60
2022-11-23T06:30:21.164Z,68.60
2022-11-23T06:32:28.344Z,68.20
2022-11-23T06:34:35.629Z,67.50
2022-11-23T06:36:44.193Z,66.40
2022-11-23T06:38:51.425Z,68.00
2022-11-23T06:41:03.420Z,70.50
2022-11-23T06:43:11.319Z,72.90
2022-11-23T06:45:22.236Z,74.50
2022-11-23T06:47:32.491Z,75.50
2022-11-23T06:49:39.365Z,76.30
2022-11-23T06:52:00.524Z,77.30
2022-11-23T06:54:07.706Z,77.30
2022-11-23T06:56:14.887Z,78.10
2022-11-23T06:58:21.765Z,78.90
2022-11-23T07:00:30.381Z,79.80
2022-11-23T07:02:37.160Z,80.40
2022-11-23T07:04:44.333Z,81.30
2022-11-23T07:06:56.378Z,81.50
2022-11-23T07:09:13.901Z,81.70
2022-11-23T07:11:31.937Z,81.00
2022-11-23T07:13:40.040Z,80.70
2022-11-23T07:15:47.069Z,80.30
2022-11-23T07:17:54.300Z,80.20
2022-11-23T07:20:03.582Z,80.10
2022-11-23T07:22:10.711Z,79.90
2022-11-23T07:24:20.762Z,79.80
2022-11-23T07:26:27.737Z,79.20
2022-11-23T07:28:34.563Z,79.00
2022-11-23T07:30:41.897Z,79.00
2022-11-23T07:32:49.640Z,79.30
2022-11-23T07:34:57.180Z,79.50
2022-11-23T07:37:06.156Z,79.70
2022-11-23T07:39:15.382Z,81.30
2022-11-23T07:41:24.409Z,84.40
2022-11-23T07:43:46.595Z,85.80
2022-11-23T07:45:53.876Z,85.80
2022-11-23T07:48:04.794Z,86.50
2022-11-23T07:50:13.520Z,86.80
2022-11-23T07:52:20.284Z,87.70
2022-11-23T07:54:27.262Z,88.00
2022-11-23T07:56:35.776Z,88.60
2022-11-23T07:58:45.721Z,88.70
2022-11-23T08:00:52.550Z,89.30
2022-11-23T08:05:28.877Z,90.60
2022-11-23T08:07:36.160Z,91.60
2022-11-23T08:09:43.696Z,92.20
2022-11-23T08:11:52.568Z,92.40
2022-11-23T08:13:59.239Z,93.20
2022-11-23T08:16:06.570Z,93.40
2022-11-23T08:18:13.855Z,93.10
2022-11-23T08:20:20.986Z,92.90
2022-11-23T08:22:28.270Z,92.90
2022-11-23T08:24:35.752Z,93.30
2022-11-23T08:26:42.888Z,93.30
2022-11-23T08:28:52.374Z,93.60
2022-11-23T08:30:59.044Z,93.70
2022-11-23T08:33:07.515Z,93.50
2022-11-23T08:35:14.587Z,93.00
2022-11-23T08:37:21.512Z,93.00
2022-11-23T08:39:28.236Z,92.50
2022-11-23T08:41:35.310Z,92.40
2022-11-23T08:43:41.979Z,92.50
2022-11-23T08:45:50.800Z,92.10
2022-11-23T08:47:58.035Z,91.80
2022-11-23T08:50:05.215Z,92.30
2022-11-23T08:52:11.985Z,92.30
2022-11-23T08:54:19.219Z,91.90
2022-11-23T08:56:27.379Z,91.50
2022-11-23T08:58:34.759Z,92.00
2022-11-23T09:00:41.841Z,91.90
2022-11-23T09:02:50.764Z,93.20
2022-11-23T09:04:57.583Z,93.40
2022-11-23T09:07:06.956Z,93.00
2022-11-23T09:09:13.739Z,92.70
2022-11-23T09:11:22.252Z,92.90
2022-11-23T09:13:28.975Z,93.10
2022-11-23T09:15:36.000Z,93.20
2022-11-23T09:17:42.774Z,93.30
2022-11-23T09:19:53.129Z,93.20
2022-11-23T09:22:00.619Z,93.60
2022-11-23T09:24:08.480Z,93.40
2022-11-23T09:26:15.288Z,93.40
2022-11-23T09:28:22.473Z,93.40
2022-11-23T09:30:29.606Z,93.10
2022-11-23T09:32:37.142Z,92.80
2022-11-23T09:34:44.783Z,92.80
2022-11-23T09:36:53.347Z,92.80
2022-11-23T09:39:00.633Z,93.00
2022-11-23T09:41:23.478Z,93.10
2022-11-23T09:43:44.382Z,93.00
2022-11-23T09:45:53.357Z,93.30
2022-11-23T09:48:23.732Z,93.50
2022-11-23T09:50:33.374Z,93.50
2022-11-23T09:52:45.930Z,93.80
2022-11-23T09:54:58.589Z,93.90
2022-11-23T09:57:07.770Z,94.20
2022-11-23T09:59:21.349Z,94.80
2022-11-23T10:01:29.581Z,95.60
2022-11-23T10:03:45.344Z,95.90
2022-11-23T10:06:03.680Z,95.60
2022-11-23T10:08:22.641Z,95.60
2022-11-23T10:10:42.981Z,95.60
2022-11-23T10:12:57.484Z,95.70
2022-11-23T10:15:13.829Z,95.70
2022-11-23T10:17:29.867Z,96.10
2022-11-23T10:19:53.131Z,96.10
2022-11-23T10:22:10.599Z,95.70
2022-11-23T10:24:25.973Z,95.50
2022-11-23T10:26:36.170Z,95.30
2022-11-23T10:28:42.999Z,95.10
2022-11-23T10:30:54.487Z,94.90
2022-11-23T10:33:04.376Z,95.00
2022-11-23T10:35:16.882Z,95.00
2022-11-23T10:37:25.087Z,95.20
2022-11-23T10:39:34.371Z,95.00
2022-11-23T10:41:41.090Z,94.60
2022-11-23T10:43:53.853Z,94.30
2022-11-23T10:46:29.359Z,94.10
2022-11-23T10:48:39.600Z,94.20
2022-11-23T10:50:46.938Z,94.10
2022-11-23T10:52:59.083Z,94.30
2022-11-23T10:55:10.158Z,94.70
2022-11-23T10:57:33.776Z,96.40
2022-11-23T10:59:41.876Z,96.30
2022-11-23T11:02:04.316Z,96.40
2022-11-23T11:04:28.292Z,96.40
2022-11-23T11:06:37.213Z,96.10
2022-11-23T11:08:53.867Z,96.00
2022-11-23T11:11:07.963Z,96.00
2022-11-23T11:13:30.862Z,95.90
2022-11-23T11:15:47.191Z,96.20
2022-11-23T11:18:00.380Z,96.00
2022-11-23T11:20:27.940Z,96.10
2022-11-23T11:22:41.067Z,96.40
2022-11-23T11:24:52.440Z,96.10
2022-11-23T11:27:05.458Z,96.00
2022-11-23T11:29:38.284Z,96.20
2022-11-23T11:31:57.146Z,96.50
2022-11-23T11:34:13.292Z,97.00
2022-11-23T11:36:21.341Z,97.10
2022-11-23T11:38:33.643Z,97.30
2022-11-23T11:40:43.437Z,97.10
2022-11-23T11:42:57.890Z,96.90
2022-11-23T11:45:06.816Z,97.00
2022-11-23T11:47:31.042Z,96.70
2022-11-23T11:49:43.701Z,96.70
2022-11-23T11:51:53.257Z,96.60
2022-11-23T11:54:06.616Z,96.50
2022-11-23T11:56:22.615Z,96.80
2022-11-23T11:58:31.285Z,97.00
2022-11-23T12:00:44.901Z,97.10
2022-11-23T12:03:04.766Z,96.90
2022-11-23T12:05:20.886Z,96.90
2022-11-23T12:07:34.839Z,96.80
2022-11-23T12:09:45.887Z,96.70
2022-11-23T12:11:53.067Z,96.70
2022-11-23T12:14:05.419Z,96.60
2022-11-23T12:16:21.510Z,96.30
2022-11-23T12:18:59.667Z,96.30
2022-11-23T12:21:08.614Z,96.20
2022-11-23T12:23:29.084Z,95.90
2022-11-23T12:25:39.996Z,95.00
2022-11-23T12:28:01.213Z,94.30
2022-11-23T12:30:26.724Z,93.90
2022-11-23T12:32:47.116Z,93.90
2022-11-23T12:35:28.603Z,94.20
2022-11-23T12:37:48.379Z,94.30
2022-11-23T12:40:26.076Z,94.50
2022-11-23T12:42:43.650Z,94.40
2022-11-23T12:45:18.227Z,95.00
2022-11-23T12:47:42.404Z,95.60
2022-11-23T12:49:54.604Z,96.10
2022-11-23T12:52:12.949Z,96.40
2022-11-23T12:54:38.357Z,96.70
2022-11-23T12:57:09.147Z,96.80
2022-11-23T12:59:17.552Z,97.00
2022-11-23T13:01:31.088Z,97.40
2022-11-23T13:04:12.364Z,97.60
2022-11-23T13:07:12.669Z,98.10
2022-11-23T13:09:48.854Z,98.10
2022-11-23T13:12:16.311Z,97.70
2022-11-23T13:14:33.629Z,97.90
2022-11-23T13:16:58.691Z,98.10
2022-11-23T13:19:21.068Z,98.10
2022-11-23T13:21:37.417Z,99.00
2022-11-23T13:23:44.850Z,99.50
2022-11-23T13:26:19.017Z,99.80
2022-11-23T13:28:35.140Z,99.90
2022-11-23T13:31:13.242Z,99.90
2022-11-23T13:33:34.283Z,99.60
2022-11-23T13:36:09.538Z,99.40
2022-11-23T13:38:31.746Z,99.20
2022-11-23T13:40:39.748Z,98.90
2022-11-23T13:42:46.772Z,98.80
2022-11-23T13:45:35.010Z,99.20
2022-11-23T13:47:43.840Z,99.60
2022-11-23T13:49:52.299Z,99.90
2022-11-23T13:52:09.874Z,99.90
2022-11-23T13:54:27.501Z,99.90
2022-11-23T13:56:37.550Z,99.90
2022-11-23T13:58:55.022Z,99.90
2022-11-23T14:01:03.103Z,99.90
2022-11-23T14:03:45.838Z,99.90
2022-11-23T14:06:04.340Z,99.90
2022-11-23T14:08:16.383Z,99.90
2022-11-23T14:10:27.302Z,99.90
2022-11-23T14:12:39.556Z,99.90
2022-11-23T14:15:01.795Z,99.90
2022-11-23T14:17:40.458Z,99.90
2022-11-23T14:20:14.774Z,99.90
2022-11-23T14:22:31.789Z,99.90
2022-11-23T14:25:15.218Z,99.90
2022-11-23T14:27:49.843Z,99.90
2022-11-23T14:30:25.901Z,99.90
2022-11-23T14:32:45.934Z,99.90
2022-11-23T14:35:04.077Z,99.90
2022-11-23T14:37:20.298Z,99.90
2022-11-23T14:40:11.736Z,99.90
2022-11-23T14:42:21.989Z,99.90
2022-11-23T14:44:38.143Z,99.90
2022-11-23T14:47:03.434Z,99.90
2022-11-23T14:49:15.586Z,99.90
2022-11-23T14:51:27.375Z,99.90
2022-11-23T14:53:38.085Z,99.90
2022-11-23T14:55:50.392Z,99.90
2022-11-23T14:58:01.208Z,99.90
2022-11-23T15:00:25.849Z,99.90
2022-11-23T15:02:37.895Z,99.90
2022-11-23T15:05:02.555Z,99.90
2022-11-23T15:07:14.889Z,99.90
2022-11-23T15:09:33.950Z,99.90
2022-11-23T15:11:41.489Z,99.90
2022-11-23T15:13:50.361Z,99.90
2022-11-23T15:16:00.203Z,99.90
2022-11-23T15:18:07.796Z,99.90
2022-11-23T15:20:15.541Z,99.90
2022-11-23T15:22:22.876Z,99.90
2022-11-23T15:24:30.828Z,99.90
2022-11-23T15:26:53.690Z,99.90
2022-11-23T15:29:00.688Z,99.90
2022-11-23T15:31:29.210Z,99.90
2022-11-23T15:33:35.956Z,99.90
2022-11-23T15:35:43.806Z,99.90
2022-11-23T15:37:51.647Z,99.90
2022-11-23T15:39:59.881Z,99.90
2022-11-23T15:42:06.832Z,99.90
2022-11-23T15:44:24.919Z,99.90
2022-11-23T15:46:39.012Z,99.90
2022-11-23T15:48:45.989Z,99.90
2022-11-23T15:50:56.144Z,99.90
2022-11-23T15:53:05.221Z,99.90
2022-11-23T15:55:17.926Z,99.90
2022-11-23T15:57:29.195Z,99.90
2022-11-23T15:59:41.917Z,99.90
2022-11-23T16:01:50.945Z,99.90
2022-11-23T16:04:03.043Z,99.90
2022-11-23T16:06:22.714Z,99.90
2022-11-23T16:08:29.586Z,99.90
2022-11-23T16:10:37.690Z,99.90
2022-11-23T16:12:51.684Z,99.90
2022-11-23T16:15:00.199Z,99.90
2022-11-23T16:17:20.087Z,99.90
2022-11-23T16:19:31.704Z,99.90
2022-11-23T16:21:38.636Z,99.90
2022-11-23T16:23:49.400Z,99.90
2022-11-23T16:26:02.113Z,99.90
2022-11-23T16:28:18.358Z,99.90
2022-11-23T16:30:27.744Z,99.90
2022-11-23T16:32:36.612Z,99.90
2022-11-23T16:34:45.993Z,99.90
2022-11-23T16:36:54.045Z,99.90
2022-11-23T16:39:05.410Z,99.90
2022-11-23T16:41:12.811Z,99.90
2022-11-23T16:43:21.125Z,99.90
2022-11-23T16:45:28.610Z,99.90
2022-11-23T16:47:38.199Z,99.90
2022-11-23T16:49:45.228Z,99.90
2022-11-23T16:51:56.719Z,99.90
2022-11-23T16:54:13.810Z,99.90
2022-11-23T16:56:23.615Z,99.90
2022-11-23T16:58:34.946Z,99.90
2022-11-23T17:00:42.436Z,99.90
2022-11-23T17:02:51.246Z,99.90
2022-11-23T17:04:58.128Z,99.90
2022-11-23T17:07:05.054Z,99.90
2022-11-23T17:09:12.631Z,99.90
2022-11-23T17:11:21.979Z,99.90
2022-11-23T17:13:32.083Z,99.90
2022-11-23T17:15:38.951Z,99.90
2022-11-23T17:17:46.184Z,99.90
2022-11-23T17:19:56.600Z,99.90
2022-11-23T17:22:07.050Z,99.90
2022-11-23T17:24:14.589Z,99.90
2022-11-23T17:26:34.419Z,99.90
2022-11-23T17:28:42.012Z,99.90
2022-11-23T17:30:49.219Z,99.90
2022-11-23T17:32:56.064Z,99.90
2022-11-23T17:35:04.884Z,99.90
2022-11-23T17:37:19.800Z,99.90
2022-11-23T17:39:29.386Z,99.90
2022-11-23T17:41:36.414Z,99.90
2022-11-23T17:43:43.594Z,99.90
2022-11-23T17:45:50.382Z,99.90
2022-11-23T17:48:01.839Z,99.90
2022-11-23T17:50:18.511Z,99.90
2022-11-23T17:52:25.941Z,99.90
2022-11-23T17:54:32.713Z,99.90
2022-11-23T17:56:39.741Z,99.90
2022-11-23T17:58:46.513Z,99.90
2022-11-23T18:00:53.646Z,99.90
2022-11-23T18:03:00.261Z,99.90
2022-11-23T18:05:07.647Z,99.90
2022-11-23T18:07:17.543Z,99.90
2022-11-23T18:09:24.581Z,99.90
2022-11-23T18:11:31.704Z,99.90
2022-11-23T18:13:38.789Z,99.90
2022-11-23T18:15:45.564Z,99.90
2022-11-23T18:17:52.944Z,99.90
2022-11-23T18:19:59.663Z,99.90
2022-11-23T18:22:06.641Z,99.90
2022-11-23T18:24:15.611Z,99.90
2022-11-23T18:26:24.227Z,99.90
2022-11-23T18:28:31.460Z,99.90
2022-11-23T18:30:38.380Z,99.90
2022-11-23T18:32:45.159Z,99.90
2022-11-23T18:34:52.441Z,99.90
2022-11-23T18:36:59.470Z,99.90
2022-11-23T18:39:07.471Z,99.90
2022-11-23T18:41:17.367Z,99.90
2022-11-23T18:43:24.649Z,99.90
2022-11-23T18:45:31.727Z,99.90
2022-11-23T18:47:38.962Z,99.90
2022-11-23T18:49:45.836Z,99.90
2022-11-23T18:51:53.016Z,99.90
2022-11-23T18:53:59.686Z,99.90
2022-11-23T18:56:07.176Z,99.90
2022-11-23T18:58:15.689Z,99.90
2022-11-23T19:00:23.696Z,99.90
2022-11-23T19:02:30.563Z,99.90
2022-11-23T19:04:38.466Z,99.90
2022-11-23T19:06:45.594Z,99.90
2022-11-23T19:08:54.619Z,99.90
2022-11-23T19:11:09.326Z,99.90
2022-11-23T19:13:18.402Z,99.90
2022-11-23T19:15:25.541Z,99.90
2022-11-23T19:17:32.708Z,99.90
2022-11-23T19:19:40.260Z,99.90
2022-11-23T19:21:47.997Z,99.90
2022-11-23T19:23:56.002Z,99.90
2022-11-23T19:26:05.484Z,99.90
2022-11-23T19:28:12.307Z,99.90
2022-11-23T19:30:21.588Z,99.90
2022-11-23T19:32:28.360Z,99.90
2022-11-23T19:34:36.004Z,99.90
2022-11-23T19:36:42.827Z,99.90
2022-11-23T19:38:50.930Z,99.90
2022-11-23T19:40:58.521Z,99.90
2022-11-23T19:43:09.541Z,99.90
2022-11-23T19:45:16.421Z,99.90
2022-11-23T19:47:25.237Z,99.90
2022-11-23T19:49:33.953Z,99.90
2022-11-23T19:51:41.194Z,99.90
2022-11-23T19:53:50.058Z,99.90
2022-11-23T19:56:03.844Z,99.90
2022-11-23T19:58:10.671Z,99.90
2022-11-23T20:00:19.079Z,99.90
2022-11-23T20:02:30.970Z,99.90
2022-11-23T20:04:38.067Z,99.90
2022-11-23T20:06:45.210Z,99.90
2022-11-23T20:08:56.767Z,99.90
2022-11-23T20:11:10.195Z,99.90
2022-11-23T20:13:17.886Z,99.90
2022-11-23T20:15:25.018Z,99.90
2022-11-23T20:17:34.402Z,99.90
2022-11-23T20:19:41.122Z,99.90
2022-11-23T20:21:48.201Z,99.90
2022-11-23T20:24:04.408Z,99.90
2022-11-23T20:26:15.468Z,99.90
2022-11-23T20:28:22.190Z,99.90
2022-11-23T20:30:29.369Z,99.90
2022-11-23T20:32:37.985Z,99.90
2022-11-23T20:34:44.960Z,99.90
2022-11-23T20:36:51.680Z,99.90
2022-11-23T20:38:58.864Z,99.90
2022-11-23T20:41:15.618Z,99.90
2022-11-23T20:43:22.596Z,99.90
2022-11-23T20:45:29.675Z,99.90
2022-11-23T20:47:38.721Z,99.90
2022-11-23T20:49:45.524Z,99.90
2022-11-23T20:51:52.402Z,99.90
2022-11-23T20:54:00.654Z,99.90
2022-11-23T20:56:09.372Z,99.90
2022-11-23T20:58:16.092Z,99.90
2022-11-23T21:00:24.555Z,99.90
2022-11-23T21:02:31.466Z,99.90
2022-11-23T21:04:40.558Z,99.90
2022-11-23T21:06:47.482Z,99.90
2022-11-23T21:08:55.129Z,99.90
2022-11-23T21:11:26.167Z,99.90
2022-11-23T21:13:50.074Z,99.90
2022-11-23T21:15:57.027Z,99.90
2022-11-23T21:18:04.452Z,99.90
2022-11-23T21:20:13.477Z,99.90
2022-11-23T21:22:21.017Z,99.90
2022-11-23T21:24:28.300Z,99.90
2022-11-23T21:26:35.431Z,99.90
2022-11-23T21:28:42.459Z,99.90
2022-11-23T21:30:49.386Z,99.90
2022-11-23T21:32:56.164Z,99.90
2022-11-23T21:35:03.655Z,99.90
2022-11-23T21:37:14.822Z,99.90
2022-11-23T21:39:22.923Z,99.90
2022-11-23T21:41:29.799Z,99.90
2022-11-23T21:43:37.456Z,99.90
2022-11-23T21:45:44.827Z,99.90
2022-11-23T21:47:51.805Z,99.90
2022-11-23T21:49:58.472Z,99.90
2022-11-23T21:52:05.760Z,99.90
2022-11-23T21:54:16.704Z,99.90
2022-11-23T21:56:24.063Z,99.90
2022-11-23T21:58:30.990Z,99.90
2022-11-23T22:00:38.170Z,99.90
2022-11-23T22:02:45.199Z,99.90
2022-11-23T22:04:52.996Z,99.90
2022-11-23T22:06:59.926Z,99.90
2022-11-23T22:09:08.331Z,99.90
2022-11-23T22:11:18.942Z,99.90
2022-11-23T22:13:26.948Z,99.90
2022-11-23T22:15:33.819Z,99.90
2022-11-23T22:17:41.051Z,99.90
2022-11-23T22:19:48.028Z,99.90
2022-11-23T22:21:55.208Z,99.90
2022-11-23T22:24:03.008Z,99.90
2022-11-23T22:26:11.620Z,99.90
2022-11-23T22:28:20.748Z,99.90
2022-11-23T22:30:28.920Z,99.90
2022-11-23T22:32:35.986Z,99.90
2022-11-23T22:34:44.291Z,99.90
2022-11-23T22:36:53.967Z,99.90
2022-11-23T22:39:02.908Z,99.90
2022-11-23T22:41:11.572Z,99.90
2022-11-23T22:43:20.646Z,99.90
2022-11-23T22:45:27.722Z,99.90
2022-11-23T22:47:35.776Z,99.90
2022-11-23T22:49:42.805Z,99.90
2022-11-23T22:51:50.040Z,99.90
2022-11-23T22:53:58.244Z,99.90
2022-11-23T22:56:07.011Z,99.90
2022-11-23T22:58:14.349Z,99.90
2022-11-23T23:00:23.529Z,99.90
2022-11-23T23:02:32.469Z,99.90
2022-11-23T23:04:39.477Z,99.90
2022-11-23T23:06:47.015Z,99.90
2022-11-23T23:08:57.579Z,99.90
2022-11-23T23:11:08.599Z,99.90
2022-11-23T23:13:15.677Z,99.90
2022-11-23T23:15:25.061Z,99.90
2022-11-23T23:17:32.347Z,99.90
2022-11-23T23:19:39.373Z,99.90
2022-11-23T23:21:47.118Z,99.90
2022-11-23T23:23:55.220Z,99.90
2022-11-23T23:26:02.303Z,99.90
2022-11-23T23:28:09.278Z,99.90
2022-11-23T23:30:17.125Z,99.90
2022-11-23T23:32:25.637Z,99.90
2022-11-23T23:34:33.199Z,99.90
2022-11-23T23:36:40.256Z,99.90
2022-11-23T23:38:47.591Z,99.90
2022-11-23T23:40:57.947Z,99.90
2022-11-23T23:43:04.925Z,99.90
2022-11-23T23:45:13.131Z,99.90
2022-11-23T23:47:20.158Z,99.90
2022-11-23T23:49:32.464Z,99.90
2022-11-23T23:51:39.284Z,99.90
2022-11-23T23:53:46.777Z,99.90
2022-11-23T23:56:04.192Z,99.90
2022-11-23T23:58:11.581Z,99.90
